BBC Polonia — V2EZ6 — position and weather

sailwx.info

Track history (hours):
 
Tides and Currents Weather Stations Pressure Air Temp Water Temp Dewpoint Dewpoint Depression Visibility Wind Speed Wind Dir Waves Ship Positions

BBC Polonia

Last reported at 2017-Jun-12 00:11 UTC. Time now 2017-Jun-24 13:40 UTC.
Position N 37°36' W 030°06'.
Warning: this ship's position is 12 days out of date.

Length 123 m; draft 5.5 m.

Type: Cargo ship. MMSI: 305614000.

Date/timePositionNaut miles runAvg speedWind from/ knotsBaromVisibWave heightAir tempDewpointWater temp
2017-Jun-12 00:11N 37°36' W 030°06'1513.4
2017-Jun-11 23:06N 37°38' W 029°48'113.6
2017-Jun-11 23:00N 37°38' W 029°47'913.8
2017-Jun-11 22:20N 37°40' W 029°35'413.4
2017-Jun-11 22:01N 37°40' W 029°30'713.8
2017-Jun-11 21:30N 37°41' W 029°21'713.7
2017-Jun-11 21:00N 37°42' W 029°12'713.7
2017-Jun-11 20:30N 37°43' W 029°04'713.4
2017-Jun-11 20:01N 37°44' W 028°56'713.3
2017-Jun-11 19:30N 37°45' W 028°47'713.6
2017-Jun-11 19:00N 37°47' W 028°39'713.2
2017-Jun-11 18:30N 37°48' W 028°30'713.0
2017-Jun-11 18:00N 37°49' W 028°22'613.0
2017-Jun-11 17:30N 37°50' W 028°14'713.3
2017-Jun-11 17:00N 37°52' W 028°06'713.4
2017-Jun-11 16:30N 37°53' W 027°58'713.3
2017-Jun-11 16:00N 37°55' W 027°50'713.4
2017-Jun-11 15:30N 37°56' W 027°41'713.6
2017-Jun-11 15:00N 37°57' W 027°33'813.4
2017-Jun-11 14:25N 37°59' W 027°23'1313.5
2017-Jun-11 13:26N 38°01' W 027°06'613.3
2017-Jun-11 13:00N 38°02' W 026°59'713.8
2017-Jun-11 12:31N 38°03' W 026°51'713.4
2017-Jun-11 12:00N 38°04' W 026°42'713.4
2017-Jun-11 11:30N 38°05' W 026°34'713.2
2017-Jun-11 11:01N 38°06' W 026°26'713.1
2017-Jun-11 10:31N 38°07' W 026°17'713.8
2017-Jun-11 10:00N 38°08' W 026°09'713.6
2017-Jun-11 09:30N 38°09' W 026°00'713.1
2017-Jun-11 09:00N 38°10' W 025°52'713.1
2017-Jun-11 08:31N 38°11' W 025°44'713.1
2017-Jun-11 08:00N 38°12' W 025°35'713.5
2017-Jun-11 07:30N 38°12' W 025°27'713.3
2017-Jun-11 07:00N 38°13' W 025°18'713.5
2017-Jun-11 06:30N 38°14' W 025°10'713.3
2017-Jun-11 06:00N 38°15' W 025°02'612.9
2017-Jun-11 05:30N 38°16' W 024°53'612.7
2017-Jun-11 05:00N 38°17' W 024°45'612.8
2017-Jun-11 04:30N 38°17' W 024°37'612.6
2017-Jun-11 04:00N 38°18' W 024°29'612.6
2017-Jun-11 03:31N 38°19' W 024°21'612.3
2017-Jun-11 03:00N 38°19' W 024°13'612.2
2017-Jun-11 02:29N 38°20' W 024°05'  
2017-Jun-04 09:18N 49°48' W 003°24'511.3
2017-Jun-04 08:52N 49°51' W 003°18'1111.3
2017-Jun-04 07:52N 49°57' W 003°02'55 9.6
2017-Jun-04 02:07N 50°13' W 001°40'1 9.5
2017-Jun-04 02:00N 50°13' W 001°38'5411.7
2017-Jun-03 21:24N 50°28' W 000°18'511.5
2017-Jun-03 21:00N 50°30' W 000°11'511.0
2017-Jun-03 20:30N 50°31' W 000°03'510.7
2017-Jun-03 20:00N 50°33' E 000°05'18 9.7
2017-Jun-03 18:08N 50°38' E 000°33'1 9.0
2017-Jun-03 18:00N 50°39' E 000°34'19 9.5
2017-Jun-03 15:57N 50°50' E 000°60'510.5
2017-Jun-03 15:26N 50°53' E 001°06'511.0
2017-Jun-03 15:00N 50°56' E 001°12'1212.3
2017-Jun-03 14:00N 51°04' E 001°28'612.6
2017-Jun-03 13:31N 51°08' E 001°35'612.3
2017-Jun-03 13:00N 51°12' E 001°43'611.8
2017-Jun-03 12:30N 51°16' E 001°48'611.4
2017-Jun-03 12:01N 51°21' E 001°53'511.0
2017-Jun-03 11:31N 51°26' E 001°58'510.4
2017-Jun-03 11:00N 51°30' E 002°03'510.0
2017-Jun-03 10:30N 51°34' E 002°08'510.0
2017-Jun-03 10:00N 51°38' E 002°13'11 9.6
2017-Jun-03 08:52N 51°46' E 002°25'3 9.7
2017-Jun-03 08:30N 51°49' E 002°28'189 9.3
2017-Jun-02 12:10N 53°24' E 006°57'3 9.0
2017-Jun-02 11:51N 53°21' E 006°59'3 8.5
2017-Jun-02 11:29N 53°20' E 007°04'5 0.7
2017-Jun-02 04:08N 53°20' E 007°12'0 0.0
2017-Jun-02 03:41N 53°20' E 007°12'0 0.0
2017-Jun-02 03:30N 53°20' E 007°12'1 1.1
2017-Jun-02 03:00N 53°20' E 007°11'0 0.6
2017-Jun-02 02:29N 53°20' E 007°11'3 6.6
2017-Jun-02 02:00N 53°20' E 007°06'4 7.4
2017-Jun-02 01:31N 53°21' E 006°60'611.1
2017-Jun-02 00:59N 53°26' E 006°55'  
Track history (hours):
 
Tides and Currents Weather Stations Pressure Air Temp Water Temp Dewpoint Dewpoint Depression Visibility Wind Speed Wind Dir Waves Ship Positions

BBC Polonia

Last reported at 2017-Jun-12 00:11 UTC. Time now 2017-Jun-24 13:40 UTC.
Position N 37°36' W 030°06'.
Warning: this ship's position is 12 days out of date.

Length 123 m; draft 5.5 m.

Type: Cargo ship. MMSI: 305614000.

Date/timePositionNaut miles runAvg speedWind from/ knotsBaromVisibWave heightAir tempDewpointWater temp
2017-Jun-12 00:11N 37°36' W 030°06'1513.4
2017-Jun-11 23:06N 37°38' W 029°48'113.6
2017-Jun-11 23:00N 37°38' W 029°47'913.8
2017-Jun-11 22:20N 37°40' W 029°35'413.4
2017-Jun-11 22:01N 37°40' W 029°30'713.8
2017-Jun-11 21:30N 37°41' W 029°21'713.7
2017-Jun-11 21:00N 37°42' W 029°12'713.7
2017-Jun-11 20:30N 37°43' W 029°04'713.4
2017-Jun-11 20:01N 37°44' W 028°56'713.3
2017-Jun-11 19:30N 37°45' W 028°47'713.6
2017-Jun-11 19:00N 37°47' W 028°39'713.2
2017-Jun-11 18:30N 37°48' W 028°30'713.0
2017-Jun-11 18:00N 37°49' W 028°22'613.0
2017-Jun-11 17:30N 37°50' W 028°14'713.3
2017-Jun-11 17:00N 37°52' W 028°06'713.4
2017-Jun-11 16:30N 37°53' W 027°58'713.3
2017-Jun-11 16:00N 37°55' W 027°50'713.4
2017-Jun-11 15:30N 37°56' W 027°41'713.6
2017-Jun-11 15:00N 37°57' W 027°33'813.4
2017-Jun-11 14:25N 37°59' W 027°23'1313.5
2017-Jun-11 13:26N 38°01' W 027°06'613.3
2017-Jun-11 13:00N 38°02' W 026°59'713.8
2017-Jun-11 12:31N 38°03' W 026°51'713.4
2017-Jun-11 12:00N 38°04' W 026°42'713.4
2017-Jun-11 11:30N 38°05' W 026°34'713.2
2017-Jun-11 11:01N 38°06' W 026°26'713.1
2017-Jun-11 10:31N 38°07' W 026°17'713.8
2017-Jun-11 10:00N 38°08' W 026°09'713.6
2017-Jun-11 09:30N 38°09' W 026°00'713.1
2017-Jun-11 09:00N 38°10' W 025°52'713.1
2017-Jun-11 08:31N 38°11' W 025°44'713.1
2017-Jun-11 08:00N 38°12' W 025°35'713.5
2017-Jun-11 07:30N 38°12' W 025°27'713.3
2017-Jun-11 07:00N 38°13' W 025°18'713.5
2017-Jun-11 06:30N 38°14' W 025°10'713.3
2017-Jun-11 06:00N 38°15' W 025°02'612.9
2017-Jun-11 05:30N 38°16' W 024°53'612.7
2017-Jun-11 05:00N 38°17' W 024°45'612.8
2017-Jun-11 04:30N 38°17' W 024°37'612.6
2017-Jun-11 04:00N 38°18' W 024°29'612.6
2017-Jun-11 03:31N 38°19' W 024°21'612.3
2017-Jun-11 03:00N 38°19' W 024°13'612.2
2017-Jun-11 02:29N 38°20' W 024°05'  
2017-Jun-04 09:18N 49°48' W 003°24'511.3
2017-Jun-04 08:52N 49°51' W 003°18'1111.3
2017-Jun-04 07:52N 49°57' W 003°02'55 9.6
2017-Jun-04 02:07N 50°13' W 001°40'1 9.5
2017-Jun-04 02:00N 50°13' W 001°38'5411.7
2017-Jun-03 21:24N 50°28' W 000°18'511.5
2017-Jun-03 21:00N 50°30' W 000°11'511.0
2017-Jun-03 20:30N 50°31' W 000°03'510.7
2017-Jun-03 20:00N 50°33' E 000°05'18 9.7
2017-Jun-03 18:08N 50°38' E 000°33'1 9.0
2017-Jun-03 18:00N 50°39' E 000°34'19 9.5
2017-Jun-03 15:57N 50°50' E 000°60'510.5
2017-Jun-03 15:26N 50°53' E 001°06'511.0
2017-Jun-03 15:00N 50°56' E 001°12'1212.3
2017-Jun-03 14:00N 51°04' E 001°28'612.6
2017-Jun-03 13:31N 51°08' E 001°35'612.3
2017-Jun-03 13:00N 51°12' E 001°43'611.8
2017-Jun-03 12:30N 51°16' E 001°48'611.4
2017-Jun-03 12:01N 51°21' E 001°53'511.0
2017-Jun-03 11:31N 51°26' E 001°58'510.4
2017-Jun-03 11:00N 51°30' E 002°03'510.0
2017-Jun-03 10:30N 51°34' E 002°08'510.0
2017-Jun-03 10:00N 51°38' E 002°13'11 9.6
2017-Jun-03 08:52N 51°46' E 002°25'3 9.7
2017-Jun-03 08:30N 51°49' E 002°28'189 9.3
2017-Jun-02 12:10N 53°24' E 006°57'3 9.0
2017-Jun-02 11:51N 53°21' E 006°59'3 8.5
2017-Jun-02 11:29N 53°20' E 007°04'5 0.7
2017-Jun-02 04:08N 53°20' E 007°12'0 0.0
2017-Jun-02 03:41N 53°20' E 007°12'0 0.0
2017-Jun-02 03:30N 53°20' E 007°12'1 1.1
2017-Jun-02 03:00N 53°20' E 007°11'0 0.6
2017-Jun-02 02:29N 53°20' E 007°11'3 6.6
2017-Jun-02 02:00N 53°20' E 007°06'4 7.4
2017-Jun-02 01:31N 53°21' E 006°60'611.1
2017-Jun-02 00:59N 53°26' E 006°55'  

Dump ship's entire track history